sensor_id;sensor_type;location;lat;lon;timestamp;P1;durP1;ratioP1;P2;durP2;ratioP2
6177;SDS011;3122;48.208;11.174;2024-03-02T00:00:53;17.33;;;13.30;;
6177;SDS011;3122;48.208;11.174;2024-03-02T00:05:54;17.70;;;13.57;;
6177;SDS011;3122;48.208;11.174;2024-03-02T00:10:58;17.50;;;12.07;;
6177;SDS011;3122;48.208;11.174;2024-03-02T00:15:59;14.87;;;11.03;;
6177;SDS011;3122;48.208;11.174;2024-03-02T00:21:00;14.70;;;11.00;;
6177;SDS011;3122;48.208;11.174;2024-03-02T00:26:02;17.00;;;11.03;;
6177;SDS011;3122;48.208;11.174;2024-03-02T00:36:08;13.30;;;10.63;;
6177;SDS011;3122;48.208;11.174;2024-03-02T00:41:11;13.57;;;10.50;;
6177;SDS011;3122;48.208;11.174;2024-03-02T00:46:23;11.20;;;9.13;;
6177;SDS011;3122;48.208;11.174;2024-03-02T00:51:25;12.37;;;9.97;;
6177;SDS011;3122;48.208;11.174;2024-03-02T00:56:27;12.93;;;10.23;;
6177;SDS011;3122;48.208;11.174;2024-03-02T01:01:27;14.00;;;10.50;;
6177;SDS011;3122;48.208;11.174;2024-03-02T01:06:28;13.03;;;10.33;;
6177;SDS011;3122;48.208;11.174;2024-03-02T01:11:28;12.67;;;9.40;;
6177;SDS011;3122;48.208;11.174;2024-03-02T01:16:30;11.37;;;9.03;;
6177;SDS011;3122;48.208;11.174;2024-03-02T01:21:30;10.97;;;8.83;;
6177;SDS011;3122;48.208;11.174;2024-03-02T01:26:31;11.83;;;9.40;;
6177;SDS011;3122;48.208;11.174;2024-03-02T01:31:31;11.47;;;8.97;;
6177;SDS011;3122;48.208;11.174;2024-03-02T01:36:32;15.23;;;9.40;;
6177;SDS011;3122;48.208;11.174;2024-03-02T01:41:33;12.93;;;9.53;;
6177;SDS011;3122;48.208;11.174;2024-03-02T01:46:33;12.87;;;9.93;;
6177;SDS011;3122;48.208;11.174;2024-03-02T01:51:34;11.63;;;9.57;;
6177;SDS011;3122;48.208;11.174;2024-03-02T01:56:35;12.40;;;9.50;;
6177;SDS011;3122;48.208;11.174;2024-03-02T02:01:36;10.97;;;8.70;;
6177;SDS011;3122;48.208;11.174;2024-03-02T02:06:36;11.40;;;9.13;;
6177;SDS011;3122;48.208;11.174;2024-03-02T02:11:37;12.10;;;9.70;;
6177;SDS011;3122;48.208;11.174;2024-03-02T02:16:38;14.40;;;9.90;;
6177;SDS011;3122;48.208;11.174;2024-03-02T02:21:41;12.80;;;9.20;;
6177;SDS011;3122;48.208;11.174;2024-03-02T02:26:42;12.90;;;9.43;;
6177;SDS011;3122;48.208;11.174;2024-03-02T02:31:43;12.50;;;9.87;;
6177;SDS011;3122;48.208;11.174;2024-03-02T02:36:44;14.47;;;10.20;;
6177;SDS011;3122;48.208;11.174;2024-03-02T02:41:44;12.77;;;9.67;;
6177;SDS011;3122;48.208;11.174;2024-03-02T02:46:45;12.17;;;9.17;;
6177;SDS011;3122;48.208;11.174;2024-03-02T02:51:45;10.67;;;8.80;;
6177;SDS011;3122;48.208;11.174;2024-03-02T02:56:46;11.97;;;9.10;;
6177;SDS011;3122;48.208;11.174;2024-03-02T03:01:46;15.87;;;11.60;;
6177;SDS011;3122;48.208;11.174;2024-03-02T03:06:47;12.50;;;9.77;;
6177;SDS011;3122;48.208;11.174;2024-03-02T03:11:47;13.43;;;9.87;;
6177;SDS011;3122;48.208;11.174;2024-03-02T03:16:50;15.80;;;10.97;;
6177;SDS011;3122;48.208;11.174;2024-03-02T03:21:50;15.40;;;11.17;;
6177;SDS011;3122;48.208;11.174;2024-03-02T03:26:51;15.23;;;11.10;;
6177;SDS011;3122;48.208;11.174;2024-03-02T03:31:52;14.63;;;10.40;;
6177;SDS011;3122;48.208;11.174;2024-03-02T03:36:52;16.53;;;10.80;;
6177;SDS011;3122;48.208;11.174;2024-03-02T03:41:53;13.93;;;10.87;;
6177;SDS011;3122;48.208;11.174;2024-03-02T03:46:54;20.83;;;13.20;;
6177;SDS011;3122;48.208;11.174;2024-03-02T03:51:54;20.20;;;11.83;;
6177;SDS011;3122;48.208;11.174;2024-03-02T03:56:55;14.40;;;10.80;;
6177;SDS011;3122;48.208;11.174;2024-03-02T04:01:56;16.80;;;11.77;;
6177;SDS011;3122;48.208;11.174;2024-03-02T04:06:56;16.87;;;11.23;;
6177;SDS011;3122;48.208;11.174;2024-03-02T04:11:57;18.03;;;11.90;;
6177;SDS011;3122;48.208;11.174;2024-03-02T04:16:57;20.87;;;13.20;;
6177;SDS011;3122;48.208;11.174;2024-03-02T04:21:58;16.70;;;11.57;;
6177;SDS011;3122;48.208;11.174;2024-03-02T04:26:59;18.67;;;12.33;;
6177;SDS011;3122;48.208;11.174;2024-03-02T04:31:59;16.43;;;11.47;;
6177;SDS011;3122;48.208;11.174;2024-03-02T04:37:00;17.70;;;11.80;;
6177;SDS011;3122;48.208;11.174;2024-03-02T04:42:00;17.83;;;12.57;;
6177;SDS011;3122;48.208;11.174;2024-03-02T04:47:01;17.70;;;12.20;;
6177;SDS011;3122;48.208;11.174;2024-03-02T04:52:02;14.27;;;11.57;;
6177;SDS011;3122;48.208;11.174;2024-03-02T04:57:02;13.63;;;10.73;;
6177;SDS011;3122;48.208;11.174;2024-03-02T05:02:03;13.13;;;10.13;;
6177;SDS011;3122;48.208;11.174;2024-03-02T05:07:04;13.20;;;10.33;;
6177;SDS011;3122;48.208;11.174;2024-03-02T05:12:04;14.37;;;10.67;;
6177;SDS011;3122;48.208;11.174;2024-03-02T05:17:17;12.97;;;10.20;;
6177;SDS011;3122;48.208;11.174;2024-03-02T05:22:18;15.10;;;10.90;;
6177;SDS011;3122;48.208;11.174;2024-03-02T05:27:18;14.43;;;10.60;;
6177;SDS011;3122;48.208;11.174;2024-03-02T05:32:19;14.87;;;10.53;;
6177;SDS011;3122;48.208;11.174;2024-03-02T05:37:19;14.50;;;10.80;;
6177;SDS011;3122;48.208;11.174;2024-03-02T05:42:20;14.23;;;10.10;;
6177;SDS011;3122;48.208;11.174;2024-03-02T05:47:21;13.53;;;10.60;;
6177;SDS011;3122;48.208;11.174;2024-03-02T05:52:21;12.53;;;9.60;;
6177;SDS011;3122;48.208;11.174;2024-03-02T05:57:22;13.73;;;9.70;;
6177;SDS011;3122;48.208;11.174;2024-03-02T06:02:39;16.67;;;11.60;;
6177;SDS011;3122;48.208;11.174;2024-03-02T06:07:40;14.70;;;10.97;;
6177;SDS011;3122;48.208;11.174;2024-03-02T06:12:41;20.80;;;13.43;;
6177;SDS011;3122;48.208;11.174;2024-03-02T06:17:41;18.80;;;13.37;;
6177;SDS011;3122;48.208;11.174;2024-03-02T06:22:42;17.57;;;11.90;;
6177;SDS011;3122;48.208;11.174;2024-03-02T06:27:43;19.90;;;14.00;;
6177;SDS011;3122;48.208;11.174;2024-03-02T06:32:43;22.47;;;14.43;;
6177;SDS011;3122;48.208;11.174;2024-03-02T06:37:44;17.03;;;11.83;;
6177;SDS011;3122;48.208;11.174;2024-03-02T06:42:44;13.50;;;10.60;;
6177;SDS011;3122;48.208;11.174;2024-03-02T06:47:45;13.80;;;10.10;;
6177;SDS011;3122;48.208;11.174;2024-03-02T06:52:45;14.83;;;11.00;;
6177;SDS011;3122;48.208;11.174;2024-03-02T06:57:46;15.87;;;10.97;;
6177;SDS011;3122;48.208;11.174;2024-03-02T07:02:46;18.37;;;12.27;;
6177;SDS011;3122;48.208;11.174;2024-03-02T07:07:47;32.67;;;11.37;;
6177;SDS011;3122;48.208;11.174;2024-03-02T07:12:47;12.77;;;9.67;;
6177;SDS011;3122;48.208;11.174;2024-03-02T07:17:48;13.10;;;10.50;;
6177;SDS011;3122;48.208;11.174;2024-03-02T07:22:48;15.37;;;11.07;;
6177;SDS011;3122;48.208;11.174;2024-03-02T07:27:49;16.07;;;11.80;;
6177;SDS011;3122;48.208;11.174;2024-03-02T07:32:50;18.03;;;12.40;;
6177;SDS011;3122;48.208;11.174;2024-03-02T07:37:51;18.17;;;13.07;;
6177;SDS011;3122;48.208;11.174;2024-03-02T07:42:51;19.07;;;13.77;;
6177;SDS011;3122;48.208;11.174;2024-03-02T07:47:52;18.60;;;13.30;;
6177;SDS011;3122;48.208;11.174;2024-03-02T07:52:53;19.37;;;13.40;;
6177;SDS011;3122;48.208;11.174;2024-03-02T07:57:54;18.53;;;12.53;;
6177;SDS011;3122;48.208;11.174;2024-03-02T08:02:55;16.70;;;12.30;;
6177;SDS011;3122;48.208;11.174;2024-03-02T08:07:56;18.43;;;12.83;;
6177;SDS011;3122;48.208;11.174;2024-03-02T08:12:56;19.30;;;13.70;;
6177;SDS011;3122;48.208;11.174;2024-03-02T08:17:57;16.67;;;11.80;;
6177;SDS011;3122;48.208;11.174;2024-03-02T08:22:58;13.87;;;10.77;;
6177;SDS011;3122;48.208;11.174;2024-03-02T08:27:59;16.20;;;12.23;;
6177;SDS011;3122;48.208;11.174;2024-03-02T08:32:59;16.83;;;11.40;;
6177;SDS011;3122;48.208;11.174;2024-03-02T08:38:00;13.30;;;9.97;;
6177;SDS011;3122;48.208;11.174;2024-03-02T08:43:01;12.73;;;9.93;;
6177;SDS011;3122;48.208;11.174;2024-03-02T08:48:01;13.13;;;9.50;;
6177;SDS011;3122;48.208;11.174;2024-03-02T08:53:03;10.10;;;7.90;;
6177;SDS011;3122;48.208;11.174;2024-03-02T08:58:03;10.13;;;8.10;;
6177;SDS011;3122;48.208;11.174;2024-03-02T09:03:04;9.73;;;8.13;;
6177;SDS011;3122;48.208;11.174;2024-03-02T09:08:05;10.47;;;8.10;;
6177;SDS011;3122;48.208;11.174;2024-03-02T09:13:05;8.97;;;7.57;;
6177;SDS011;3122;48.208;11.174;2024-03-02T09:18:06;8.97;;;7.27;;
6177;SDS011;3122;48.208;11.174;2024-03-02T09:23:07;10.53;;;9.20;;
6177;SDS011;3122;48.208;11.174;2024-03-02T09:28:07;10.57;;;8.73;;
6177;SDS011;3122;48.208;11.174;2024-03-02T09:33:08;10.20;;;8.20;;
6177;SDS011;3122;48.208;11.174;2024-03-02T09:38:08;10.40;;;8.47;;
6177;SDS011;3122;48.208;11.174;2024-03-02T09:43:09;12.93;;;9.37;;
6177;SDS011;3122;48.208;11.174;2024-03-02T09:48:10;9.20;;;7.37;;
6177;SDS011;3122;48.208;11.174;2024-03-02T09:53:11;13.23;;;9.23;;
6177;SDS011;3122;48.208;11.174;2024-03-02T09:58:12;9.00;;;7.13;;
6177;SDS011;3122;48.208;11.174;2024-03-02T10:03:13;10.90;;;8.63;;
6177;SDS011;3122;48.208;11.174;2024-03-02T10:08:13;11.73;;;9.03;;
6177;SDS011;3122;48.208;11.174;2024-03-02T10:13:14;13.13;;;9.83;;
6177;SDS011;3122;48.208;11.174;2024-03-02T10:18:14;13.33;;;10.00;;
6177;SDS011;3122;48.208;11.174;2024-03-02T10:23:26;9.97;;;8.17;;
6177;SDS011;3122;48.208;11.174;2024-03-02T10:28:27;10.47;;;8.47;;
6177;SDS011;3122;48.208;11.174;2024-03-02T10:33:28;8.17;;;6.33;;
6177;SDS011;3122;48.208;11.174;2024-03-02T10:38:28;11.50;;;8.23;;
6177;SDS011;3122;48.208;11.174;2024-03-02T10:43:29;12.87;;;8.77;;
6177;SDS011;3122;48.208;11.174;2024-03-02T10:48:30;16.57;;;11.00;;
6177;SDS011;3122;48.208;11.174;2024-03-02T10:53:32;17.00;;;12.20;;
6177;SDS011;3122;48.208;11.174;2024-03-02T11:03:35;20.07;;;14.00;;
6177;SDS011;3122;48.208;11.174;2024-03-02T11:08:39;19.53;;;12.20;;
6177;SDS011;3122;48.208;11.174;2024-03-02T11:13:42;14.63;;;10.53;;
6177;SDS011;3122;48.208;11.174;2024-03-02T11:18:49;19.17;;;13.17;;
6177;SDS011;3122;48.208;11.174;2024-03-02T13:19:15;24.37;;;14.83;;
6177;SDS011;3122;48.208;11.174;2024-03-02T13:24:18;25.20;;;15.83;;
6177;SDS011;3122;48.208;11.174;2024-03-02T13:29:19;25.40;;;16.40;;
6177;SDS011;3122;48.208;11.174;2024-03-02T13:34:21;24.80;;;15.73;;
6177;SDS011;3122;48.208;11.174;2024-03-02T13:39:22;22.77;;;14.37;;
6177;SDS011;3122;48.208;11.174;2024-03-02T13:44:23;27.00;;;16.13;;
6177;SDS011;3122;48.208;11.174;2024-03-02T13:49:24;23.83;;;15.70;;
6177;SDS011;3122;48.208;11.174;2024-03-02T13:54:24;24.83;;;14.87;;
6177;SDS011;3122;48.208;11.174;2024-03-02T13:59:26;22.20;;;14.10;;
6177;SDS011;3122;48.208;11.174;2024-03-02T14:04:27;19.13;;;12.97;;
6177;SDS011;3122;48.208;11.174;2024-03-02T14:09:28;23.50;;;13.90;;
6177;SDS011;3122;48.208;11.174;2024-03-02T14:14:28;18.83;;;12.80;;
6177;SDS011;3122;48.208;11.174;2024-03-02T14:19:29;22.00;;;13.60;;
6177;SDS011;3122;48.208;11.174;2024-03-02T14:24:30;23.27;;;14.30;;
6177;SDS011;3122;48.208;11.174;2024-03-02T14:29:31;18.00;;;12.00;;
6177;SDS011;3122;48.208;11.174;2024-03-02T14:34:33;19.60;;;13.10;;
6177;SDS011;3122;48.208;11.174;2024-03-02T14:39:33;17.60;;;12.67;;
6177;SDS011;3122;48.208;11.174;2024-03-02T14:44:35;19.03;;;10.87;;
6177;SDS011;3122;48.208;11.174;2024-03-02T14:49:36;15.50;;;9.50;;
6177;SDS011;3122;48.208;11.174;2024-03-02T14:54:40;16.90;;;10.50;;
6177;SDS011;3122;48.208;11.174;2024-03-02T14:59:42;16.23;;;11.20;;
6177;SDS011;3122;48.208;11.174;2024-03-02T15:04:42;15.07;;;10.63;;
6177;SDS011;3122;48.208;11.174;2024-03-02T15:09:45;15.17;;;10.63;;
6177;SDS011;3122;48.208;11.174;2024-03-02T15:14:46;16.87;;;11.37;;
6177;SDS011;3122;48.208;11.174;2024-03-02T15:19:47;17.03;;;9.67;;
6177;SDS011;3122;48.208;11.174;2024-03-02T15:24:48;16.20;;;11.13;;
6177;SDS011;3122;48.208;11.174;2024-03-02T15:29:48;19.90;;;11.80;;
6177;SDS011;3122;48.208;11.174;2024-03-02T15:34:50;18.47;;;11.83;;
6177;SDS011;3122;48.208;11.174;2024-03-02T15:39:51;19.57;;;11.40;;
6177;SDS011;3122;48.208;11.174;2024-03-02T15:44:52;20.97;;;13.20;;
6177;SDS011;3122;48.208;11.174;2024-03-02T15:49:53;19.17;;;12.47;;
6177;SDS011;3122;48.208;11.174;2024-03-02T15:54:54;22.43;;;13.50;;
6177;SDS011;3122;48.208;11.174;2024-03-02T15:59:54;24.80;;;14.90;;
6177;SDS011;3122;48.208;11.174;2024-03-02T16:04:55;28.20;;;15.10;;
6177;SDS011;3122;48.208;11.174;2024-03-02T16:09:56;20.67;;;12.60;;
6177;SDS011;3122;48.208;11.174;2024-03-02T16:14:56;26.30;;;14.13;;
6177;SDS011;3122;48.208;11.174;2024-03-02T16:19:57;20.77;;;13.60;;
6177;SDS011;3122;48.208;11.174;2024-03-02T16:24:58;18.87;;;12.60;;
6177;SDS011;3122;48.208;11.174;2024-03-02T16:29:58;22.43;;;13.33;;
6177;SDS011;3122;48.208;11.174;2024-03-02T16:34:59;23.70;;;14.10;;
6177;SDS011;3122;48.208;11.174;2024-03-02T16:40:00;21.13;;;13.57;;
6177;SDS011;3122;48.208;11.174;2024-03-02T16:45:00;24.50;;;14.77;;
6177;SDS011;3122;48.208;11.174;2024-03-02T16:50:01;24.43;;;14.20;;
6177;SDS011;3122;48.208;11.174;2024-03-02T16:55:03;28.80;;;16.90;;
6177;SDS011;3122;48.208;11.174;2024-03-02T17:00:05;29.37;;;16.87;;
6177;SDS011;3122;48.208;11.174;2024-03-02T17:05:07;25.33;;;16.57;;
6177;SDS011;3122;48.208;11.174;2024-03-02T17:10:08;26.10;;;16.13;;
6177;SDS011;3122;48.208;11.174;2024-03-02T17:15:09;26.27;;;16.00;;
6177;SDS011;3122;48.208;11.174;2024-03-02T17:20:10;31.73;;;17.27;;
6177;SDS011;3122;48.208;11.174;2024-03-02T17:25:13;31.60;;;19.33;;
6177;SDS011;3122;48.208;11.174;2024-03-02T17:30:14;30.63;;;18.33;;
6177;SDS011;3122;48.208;11.174;2024-03-02T17:35:15;37.10;;;19.50;;
6177;SDS011;3122;48.208;11.174;2024-03-02T17:40:15;34.30;;;20.07;;
6177;SDS011;3122;48.208;11.174;2024-03-02T17:45:16;36.47;;;19.77;;
6177;SDS011;3122;48.208;11.174;2024-03-02T17:50:16;42.37;;;21.50;;
6177;SDS011;3122;48.208;11.174;2024-03-02T17:55:17;36.10;;;19.80;;
6177;SDS011;3122;48.208;11.174;2024-03-02T18:00:17;37.43;;;20.07;;
6177;SDS011;3122;48.208;11.174;2024-03-02T18:05:20;38.50;;;20.50;;
6177;SDS011;3122;48.208;11.174;2024-03-02T18:10:21;35.70;;;20.30;;
6177;SDS011;3122;48.208;11.174;2024-03-02T18:15:21;40.13;;;21.13;;
6177;SDS011;3122;48.208;11.174;2024-03-02T18:20:22;59.53;;;22.27;;
6177;SDS011;3122;48.208;11.174;2024-03-02T18:25:22;37.90;;;21.63;;
6177;SDS011;3122;48.208;11.174;2024-03-02T18:30:23;40.23;;;21.50;;
6177;SDS011;3122;48.208;11.174;2024-03-02T18:35:23;40.17;;;21.40;;
6177;SDS011;3122;48.208;11.174;2024-03-02T18:40:24;41.33;;;22.30;;
6177;SDS011;3122;48.208;11.174;2024-03-02T18:45:25;43.40;;;23.87;;
6177;SDS011;3122;48.208;11.174;2024-03-02T18:50:25;36.70;;;20.67;;
6177;SDS011;3122;48.208;11.174;2024-03-02T18:55:26;44.57;;;22.63;;
6177;SDS011;3122;48.208;11.174;2024-03-02T19:00:27;42.23;;;22.43;;
6177;SDS011;3122;48.208;11.174;2024-03-02T19:05:28;43.47;;;22.70;;
6177;SDS011;3122;48.208;11.174;2024-03-02T19:10:29;43.83;;;23.13;;
6177;SDS011;3122;48.208;11.174;2024-03-02T19:15:30;37.87;;;21.53;;
6177;SDS011;3122;48.208;11.174;2024-03-02T19:20:30;36.97;;;20.90;;
6177;SDS011;3122;48.208;11.174;2024-03-02T19:25:31;43.90;;;23.25;;
6177;SDS011;3122;48.208;11.174;2024-03-02T20:45:44;41.67;;;21.63;;
6177;SDS011;3122;48.208;11.174;2024-03-02T20:50:45;44.70;;;23.60;;
6177;SDS011;3122;48.208;11.174;2024-03-02T20:55:46;40.63;;;21.73;;
6177;SDS011;3122;48.208;11.174;2024-03-02T21:00:46;45.87;;;24.03;;
6177;SDS011;3122;48.208;11.174;2024-03-02T21:05:47;44.30;;;23.17;;
6177;SDS011;3122;48.208;11.174;2024-03-02T21:10:48;41.23;;;22.40;;
6177;SDS011;3122;48.208;11.174;2024-03-02T21:15:48;40.47;;;22.60;;
6177;SDS011;3122;48.208;11.174;2024-03-02T21:20:49;49.70;;;24.93;;
6177;SDS011;3122;48.208;11.174;2024-03-02T21:25:49;48.77;;;23.87;;
6177;SDS011;3122;48.208;11.174;2024-03-02T21:30:50;46.87;;;24.10;;
6177;SDS011;3122;48.208;11.174;2024-03-02T21:35:50;50.80;;;25.53;;
6177;SDS011;3122;48.208;11.174;2024-03-02T21:40:51;41.20;;;23.43;;
6177;SDS011;3122;48.208;11.174;2024-03-02T21:45:51;47.00;;;23.17;;
6177;SDS011;3122;48.208;11.174;2024-03-02T21:50:52;47.57;;;25.23;;
6177;SDS011;3122;48.208;11.174;2024-03-02T21:55:53;42.13;;;22.10;;
6177;SDS011;3122;48.208;11.174;2024-03-02T22:00:54;43.80;;;23.97;;
6177;SDS011;3122;48.208;11.174;2024-03-02T22:05:54;43.53;;;23.17;;
6177;SDS011;3122;48.208;11.174;2024-03-02T22:10:55;45.90;;;24.20;;
6177;SDS011;3122;48.208;11.174;2024-03-02T22:15:55;47.70;;;25.27;;
6177;SDS011;3122;48.208;11.174;2024-03-02T22:20:56;45.27;;;24.23;;
6177;SDS011;3122;48.208;11.174;2024-03-02T22:25:59;50.53;;;25.60;;
6177;SDS011;3122;48.208;11.174;2024-03-02T22:31:00;50.80;;;26.30;;
6177;SDS011;3122;48.208;11.174;2024-03-02T22:36:01;49.87;;;25.37;;
6177;SDS011;3122;48.208;11.174;2024-03-02T22:41:01;53.50;;;25.23;;
6177;SDS011;3122;48.208;11.174;2024-03-02T22:46:02;50.77;;;25.80;;
6177;SDS011;3122;48.208;11.174;2024-03-02T22:51:03;46.13;;;25.23;;
6177;SDS011;3122;48.208;11.174;2024-03-02T22:56:04;45.13;;;23.60;;
6177;SDS011;3122;48.208;11.174;2024-03-02T23:01:05;44.10;;;24.13;;
6177;SDS011;3122;48.208;11.174;2024-03-02T23:06:08;46.10;;;25.10;;
6177;SDS011;3122;48.208;11.174;2024-03-02T23:11:09;48.00;;;24.40;;
6177;SDS011;3122;48.208;11.174;2024-03-02T23:16:11;41.60;;;23.23;;
6177;SDS011;3122;48.208;11.174;2024-03-02T23:21:11;49.10;;;24.53;;
6177;SDS011;3122;48.208;11.174;2024-03-02T23:26:12;44.30;;;24.53;;
6177;SDS011;3122;48.208;11.174;2024-03-02T23:31:12;40.77;;;22.83;;
6177;SDS011;3122;48.208;11.174;2024-03-02T23:36:15;44.07;;;22.37;;
6177;SDS011;3122;48.208;11.174;2024-03-02T23:41:16;40.30;;;22.00;;
6177;SDS011;3122;48.208;11.174;2024-03-02T23:46:16;38.50;;;22.57;;
6177;SDS011;3122;48.208;11.174;2024-03-02T23:51:17;39.63;;;22.07;;
6177;SDS011;3122;48.208;11.174;2024-03-02T23:56:18;43.90;;;23.70;;
